Terminal Aerodrome Forecast
Issued by NWS Detroit/Pontiac, MI

Home | Current Version | Previous Version | Text Only | Print | Product List | Glossary On
Versions: 1 2 3 4 5 6 7 8 9 10 11 12 13 14 15 16 17 18 19 20 21
000
FTUS43 KDTX 231743 CCA
TAFFNT
TAF COR
KFNT 231743Z 2318/2418 30012KT P6SM SCT028 BKN045
      TEMPO 2318/2319 -SHRA BKN028
     FM240100 28006KT P6SM SCT120
     FM241500 28013KT P6SM BKN050=

USA.gov is the U.S. government's official web portal to all federal, state and local government web resources and services.